createdAt,value
2017-05-12T00:01:49.314Z,12.60
2017-05-12T00:04:17.490Z,12.50
2017-05-12T00:06:44.638Z,12.60
2017-05-12T00:09:11.889Z,12.60
2017-05-12T00:11:39.038Z,12.70
2017-05-12T00:14:06.177Z,12.70
2017-05-12T00:16:33.340Z,12.70
2017-05-12T00:19:00.477Z,12.70
2017-05-12T00:21:27.618Z,12.70
2017-05-12T00:23:54.782Z,12.60
2017-05-12T00:26:21.928Z,12.70
2017-05-12T00:28:49.103Z,12.70
2017-05-12T00:31:16.232Z,12.70
2017-05-12T00:33:43.409Z,12.70
2017-05-12T00:36:10.561Z,12.70
2017-05-12T00:38:37.738Z,12.70
2017-05-12T00:41:05.633Z,12.70
2017-05-12T00:43:32.794Z,12.70
2017-05-12T00:45:59.933Z,12.70
2017-05-12T00:48:29.029Z,12.70
2017-05-12T00:50:56.178Z,12.70
2017-05-12T00:53:23.345Z,12.70
2017-05-12T00:55:50.507Z,12.60
2017-05-12T00:58:18.069Z,12.70
2017-05-12T01:00:45.198Z,12.70
2017-05-12T01:03:12.354Z,12.60
2017-05-12T01:05:39.530Z,12.70
2017-05-12T01:08:06.662Z,12.70
2017-05-12T01:10:33.814Z,12.70
2017-05-12T01:13:01.018Z,12.70
2017-05-12T01:15:28.911Z,12.70
2017-05-12T01:17:56.062Z,12.70
2017-05-12T01:20:23.234Z,12.70
2017-05-12T01:22:50.366Z,12.70
2017-05-12T01:25:17.509Z,12.70
2017-05-12T01:27:44.658Z,12.80
2017-05-12T01:30:11.873Z,13.00
2017-05-12T01:32:39.058Z,13.00
2017-05-12T01:35:07.257Z,13.30
2017-05-12T01:37:36.756Z,13.40
2017-05-12T01:40:04.700Z,13.30
2017-05-12T01:42:31.881Z,13.20
2017-05-12T01:45:00.091Z,13.10
2017-05-12T01:47:27.265Z,13.00
2017-05-12T01:49:54.488Z,12.90
2017-05-12T01:52:22.365Z,12.70
2017-05-12T01:54:49.542Z,12.70
2017-05-12T01:57:16.685Z,12.80
2017-05-12T01:59:43.850Z,12.70
2017-05-12T02:02:11.027Z,12.70
2017-05-12T02:04:39.586Z,12.70
2017-05-12T02:07:06.729Z,12.70
2017-05-12T02:09:33.869Z,12.70
2017-05-12T02:15:04.367Z,12.60
2017-05-12T02:17:33.281Z,12.50
2017-05-12T02:20:00.422Z,12.40
2017-05-12T02:22:28.311Z,12.30
2017-05-12T02:24:55.470Z,12.30
2017-05-12T02:27:22.697Z,12.40
2017-05-12T02:29:50.558Z,12.50
2017-05-12T02:32:18.458Z,12.50
2017-05-12T02:34:45.582Z,12.60
2017-05-12T02:37:12.726Z,12.60
2017-05-12T02:39:39.882Z,12.60
2017-05-12T02:42:08.085Z,12.70
2017-05-12T02:44:35.226Z,12.70
2017-05-12T02:47:02.417Z,12.80
2017-05-12T02:49:29.561Z,12.90
2017-05-12T02:51:56.707Z,12.90
2017-05-12T02:54:23.843Z,12.90
2017-05-12T02:56:51.009Z,12.90
2017-05-12T02:59:18.126Z,13.00
2017-05-12T03:01:46.282Z,13.00
2017-05-12T03:04:13.417Z,13.00
2017-05-12T03:06:40.577Z,13.20
2017-05-12T03:09:08.127Z,13.20
2017-05-12T03:11:35.289Z,13.20
2017-05-12T03:14:03.442Z,13.10
2017-05-12T03:16:31.310Z,13.00
2017-05-12T03:18:59.199Z,12.90
2017-05-12T03:21:27.386Z,12.50
2017-05-12T03:23:55.579Z,12.50
2017-05-12T03:26:22.714Z,12.20
2017-05-12T03:28:49.857Z,12.10
2017-05-12T03:31:16.998Z,12.10
2017-05-12T03:33:45.167Z,12.00
2017-05-12T03:36:13.329Z,11.80
2017-05-12T03:38:40.498Z,11.80
2017-05-12T03:41:07.613Z,11.90
2017-05-12T03:43:35.511Z,11.80
2017-05-12T03:46:02.654Z,11.80
2017-05-12T03:48:29.797Z,11.70
2017-05-12T03:50:56.941Z,11.70
2017-05-12T03:53:25.125Z,11.70
2017-05-12T03:55:52.274Z,11.80
2017-05-12T03:58:23.592Z,11.80
2017-05-12T04:00:50.765Z,11.70
2017-05-12T04:03:17.942Z,11.70
2017-05-12T04:05:46.159Z,11.70
2017-05-12T04:08:14.066Z,11.60
2017-05-12T04:10:41.250Z,11.60
2017-05-12T04:13:08.415Z,11.60
2017-05-12T04:15:35.585Z,11.50
2017-05-12T04:18:02.765Z,11.60
2017-05-12T04:20:29.952Z,11.50
2017-05-12T04:22:57.127Z,11.40
2017-05-12T04:25:25.035Z,11.40
2017-05-12T04:27:52.215Z,11.40
2017-05-12T04:30:19.397Z,11.50
2017-05-12T04:32:48.590Z,11.50
2017-05-12T04:35:16.521Z,11.40
2017-05-12T04:37:43.681Z,11.40
2017-05-12T04:40:10.857Z,11.60
2017-05-12T04:42:38.762Z,11.50
2017-05-12T04:45:06.967Z,11.60
2017-05-12T04:47:34.143Z,11.50
2017-05-12T04:50:02.063Z,11.50
2017-05-12T04:52:29.242Z,11.60
2017-05-12T04:54:56.399Z,11.60
2017-05-12T04:57:23.561Z,11.60
2017-05-12T04:59:52.466Z,11.50
2017-05-12T05:02:20.385Z,11.40
2017-05-12T05:04:47.572Z,11.40
2017-05-12T05:07:16.493Z,11.40
2017-05-12T05:09:43.926Z,11.30
2017-05-12T05:12:12.158Z,11.30
2017-05-12T05:14:39.345Z,11.30
2017-05-12T05:17:07.241Z,11.30
2017-05-12T05:19:34.415Z,11.30
2017-05-12T05:22:01.590Z,11.30
2017-05-12T05:24:28.761Z,11.30
2017-05-12T05:26:56.661Z,11.20
2017-05-12T05:29:24.847Z,11.30
2017-05-12T05:31:52.025Z,11.30
2017-05-12T05:34:20.258Z,11.20
2017-05-12T05:36:47.435Z,11.20
2017-05-12T05:39:14.610Z,11.20
2017-05-12T05:41:41.782Z,11.20
2017-05-12T05:44:09.697Z,11.10
2017-05-12T05:46:36.926Z,11.20
2017-05-12T05:49:04.081Z,11.20
2017-05-12T05:51:31.277Z,11.20
2017-05-12T05:53:58.443Z,11.10
2017-05-12T05:56:26.354Z,11.10
2017-05-12T05:58:53.524Z,11.20
2017-05-12T06:01:20.724Z,11.20
2017-05-12T06:03:48.195Z,11.20
2017-05-12T06:06:15.357Z,11.10
2017-05-12T06:08:42.545Z,11.10
2017-05-12T06:11:09.718Z,11.10
2017-05-12T06:13:37.630Z,11.10
2017-05-12T06:16:05.814Z,11.20
2017-05-12T06:18:32.990Z,11.20
2017-05-12T06:21:00.165Z,11.30
2017-05-12T06:23:28.078Z,11.30
2017-05-12T06:25:55.250Z,11.50
2017-05-12T06:28:22.431Z,11.50
2017-05-12T06:30:49.609Z,11.70
2017-05-12T06:33:16.850Z,11.80
2017-05-12T06:35:44.017Z,11.80
2017-05-12T06:38:11.190Z,11.80
2017-05-12T06:40:38.462Z,12.00
2017-05-12T06:43:05.726Z,12.00
2017-05-12T06:45:32.945Z,12.00
2017-05-12T06:48:00.165Z,12.10
2017-05-12T06:50:27.448Z,12.20
2017-05-12T06:52:54.613Z,12.10
2017-05-12T06:55:21.801Z,12.20
2017-05-12T06:57:49.991Z,12.20
2017-05-12T07:00:17.166Z,12.10
2017-05-12T07:02:44.396Z,12.30
2017-05-12T07:05:11.569Z,12.30
2017-05-12T07:07:38.799Z,12.30
2017-05-12T07:10:06.965Z,12.30
2017-05-12T07:12:34.136Z,12.50
2017-05-12T07:15:01.423Z,12.60
2017-05-12T07:17:28.593Z,12.80
2017-05-12T07:19:55.786Z,13.00
2017-05-12T07:22:22.966Z,13.40
2017-05-12T07:24:50.438Z,13.70
2017-05-12T07:27:18.352Z,14.40
2017-05-12T07:29:45.533Z,14.30
2017-05-12T07:32:12.700Z,14.70
2017-05-12T07:34:39.862Z,14.90
2017-05-12T07:37:08.781Z,15.00
2017-05-12T07:39:35.961Z,14.70
2017-05-12T07:42:03.135Z,14.70
2017-05-12T07:44:30.303Z,14.70
2017-05-12T07:46:59.250Z,14.70
2017-05-12T07:49:27.422Z,14.60
2017-05-12T07:51:54.633Z,14.80
2017-05-12T07:54:21.814Z,14.60
2017-05-12T07:56:48.995Z,14.70
2017-05-12T07:59:17.281Z,14.80
2017-05-12T08:01:45.482Z,15.20
2017-05-12T08:04:12.973Z,15.20
2017-05-12T08:06:40.146Z,15.40
2017-05-12T08:09:07.317Z,15.90
2017-05-12T08:11:35.240Z,15.90
2017-05-12T08:14:02.446Z,16.00
2017-05-12T08:16:29.625Z,16.50
2017-05-12T08:18:56.850Z,15.80
2017-05-12T08:21:24.026Z,15.90
2017-05-12T08:23:52.210Z,16.10
2017-05-12T08:26:19.681Z,16.30
2017-05-12T08:28:46.850Z,16.30
2017-05-12T08:31:14.022Z,17.00
2017-05-12T08:33:42.950Z,16.60
2017-05-12T08:36:11.114Z,17.00
2017-05-12T08:38:38.505Z,16.70
2017-05-12T08:41:05.661Z,17.10
2017-05-12T08:43:32.822Z,17.50
2017-05-12T08:45:59.997Z,17.40
2017-05-12T08:48:27.497Z,16.90
2017-05-12T08:50:54.690Z,17.00
2017-05-12T08:53:22.595Z,17.50
2017-05-12T08:55:49.758Z,17.60
2017-05-12T08:58:16.925Z,17.70
2017-05-12T09:00:44.081Z,18.30
2017-05-12T09:03:11.628Z,18.20
2017-05-12T09:05:38.795Z,18.20
2017-05-12T09:08:05.962Z,18.20
2017-05-12T09:10:33.882Z,18.50
2017-05-12T09:13:01.057Z,18.50
2017-05-12T09:15:28.233Z,18.90
2017-05-12T09:17:56.151Z,18.00
2017-05-12T09:20:23.334Z,18.10
2017-05-12T09:22:51.501Z,18.10
2017-05-12T09:25:18.670Z,17.70
2017-05-12T09:27:45.838Z,18.20
2017-05-12T09:30:13.010Z,18.50
2017-05-12T09:32:40.182Z,18.60
2017-05-12T09:35:07.382Z,18.70
2017-05-12T09:37:35.618Z,18.80
2017-05-12T09:40:03.825Z,19.20
2017-05-12T09:42:31.746Z,19.50
2017-05-12T09:44:58.940Z,19.50
2017-05-12T09:47:26.854Z,19.40
2017-05-12T09:49:55.986Z,19.20
2017-05-12T09:52:23.165Z,19.20
2017-05-12T09:54:51.080Z,19.00
2017-05-12T09:57:19.324Z,19.00
2017-05-12T09:59:46.503Z,18.90
2017-05-12T10:02:13.965Z,19.00
2017-05-12T10:04:42.149Z,19.00
2017-05-12T10:07:09.339Z,18.80
2017-05-12T10:09:36.578Z,18.90
2017-05-12T10:12:04.526Z,19.00
2017-05-12T10:14:31.706Z,18.90
2017-05-12T10:16:58.898Z,18.50
2017-05-12T10:19:26.093Z,19.00
2017-05-12T10:21:54.022Z,18.70
2017-05-12T10:24:21.246Z,18.30
2017-05-12T10:26:48.418Z,18.30
2017-05-12T10:29:15.604Z,18.10
2017-05-12T10:31:42.787Z,18.10
2017-05-12T10:34:11.429Z,18.80
2017-05-12T10:36:39.422Z,19.00
2017-05-12T10:39:07.598Z,18.60
2017-05-12T10:41:35.510Z,19.20
2017-05-12T10:44:02.685Z,19.40
2017-05-12T10:46:29.853Z,19.50
2017-05-12T10:48:58.759Z,19.70
2017-05-12T10:51:25.930Z,19.60
2017-05-12T10:53:53.089Z,20.40
2017-05-12T10:56:20.265Z,20.60
2017-05-12T10:58:48.473Z,20.20
2017-05-12T11:01:16.378Z,21.20
2017-05-12T11:03:44.770Z,20.80
2017-05-12T11:06:11.944Z,20.60
2017-05-12T11:08:39.118Z,20.70
2017-05-12T11:11:07.057Z,21.50
2017-05-12T11:13:34.225Z,20.70
2017-05-12T11:16:02.142Z,19.80
2017-05-12T11:18:30.339Z,20.80
2017-05-12T11:20:58.527Z,20.80
2017-05-12T11:23:25.765Z,21.30
2017-05-12T11:25:52.925Z,21.00
2017-05-12T11:28:20.098Z,20.60
2017-05-12T11:30:48.001Z,20.90
2017-05-12T11:33:15.477Z,20.70
2017-05-12T11:35:43.650Z,21.20
2017-05-12T11:38:10.836Z,21.40
2017-05-12T11:40:38.773Z,21.80
2017-05-12T11:43:06.722Z,21.50
2017-05-12T11:45:33.901Z,20.90
2017-05-12T11:48:01.108Z,19.80
2017-05-12T11:50:29.383Z,19.30
2017-05-12T11:52:56.573Z,18.90
2017-05-12T11:55:24.666Z,18.50
2017-05-12T11:57:51.842Z,18.50
2017-05-12T12:00:19.037Z,18.50
2017-05-12T12:02:46.508Z,18.50
2017-05-12T12:05:13.686Z,18.60
2017-05-12T12:07:41.613Z,18.80
2017-05-12T12:10:08.785Z,19.50
2017-05-12T12:12:36.973Z,20.00
2017-05-12T12:15:04.882Z,20.40
2017-05-12T12:17:33.016Z,20.80
2017-05-12T12:20:02.211Z,20.60
2017-05-12T12:22:30.571Z,20.90
2017-05-12T12:24:57.785Z,22.60
2017-05-12T12:27:26.286Z,23.00
2017-05-12T12:29:53.477Z,21.20
2017-05-12T12:32:20.670Z,20.60
2017-05-12T12:34:47.860Z,20.70
2017-05-12T12:37:16.045Z,21.20
2017-05-12T12:39:43.982Z,21.50
2017-05-12T12:42:11.154Z,24.30
2017-05-12T12:44:38.317Z,24.10
2017-05-12T12:47:06.234Z,24.00
2017-05-12T12:49:33.411Z,22.90
2017-05-12T12:52:00.582Z,26.70
2017-05-12T12:54:28.504Z,29.30
2017-05-12T12:56:55.670Z,30.30
2017-05-12T12:59:22.845Z,28.80
2017-05-12T13:01:51.096Z,29.60
2017-05-12T13:04:19.251Z,26.60
2017-05-12T13:06:46.461Z,26.50
2017-05-12T13:09:13.638Z,27.00
2017-05-12T13:11:40.801Z,25.80
2017-05-12T13:14:07.996Z,22.90
2017-05-12T13:16:35.897Z,25.20
2017-05-12T13:19:03.099Z,27.30
2017-05-12T13:21:30.270Z,30.00
2017-05-12T13:23:58.188Z,32.50
2017-05-12T13:26:25.535Z,33.60
2017-05-12T13:28:52.891Z,30.60
2017-05-12T13:31:20.142Z,30.80
2017-05-12T13:33:47.342Z,29.30
2017-05-12T13:36:15.257Z,30.10
2017-05-12T13:38:43.457Z,25.80
2017-05-12T13:41:11.418Z,28.10
2017-05-12T13:43:38.642Z,30.10
2017-05-12T13:46:05.814Z,28.30
2017-05-12T13:48:32.975Z,27.00
2017-05-12T13:51:00.146Z,25.40
2017-05-12T13:53:28.106Z,25.70
2017-05-12T13:55:57.006Z,23.90
2017-05-12T13:58:24.923Z,23.20
2017-05-12T14:00:52.110Z,22.70
2017-05-12T14:03:19.641Z,23.40
2017-05-12T14:05:46.805Z,23.00
2017-05-12T14:08:13.984Z,22.30
2017-05-12T14:10:41.915Z,22.90
2017-05-12T14:13:09.125Z,22.10
2017-05-12T14:15:36.305Z,22.30
2017-05-12T14:18:03.482Z,21.80
2017-05-12T14:20:31.432Z,22.60
2017-05-12T14:22:58.613Z,22.30
2017-05-12T14:25:26.518Z,22.60
2017-05-12T14:27:53.699Z,22.60
2017-05-12T14:30:20.886Z,22.90
2017-05-12T14:32:51.358Z,23.70
2017-05-12T14:35:19.394Z,29.30
2017-05-12T14:37:47.610Z,32.90
2017-05-12T14:40:15.793Z,30.40
2017-05-12T14:42:43.002Z,29.10
2017-05-12T14:45:10.177Z,27.20
2017-05-12T14:47:37.360Z,25.80
2017-05-12T14:50:04.560Z,24.70
2017-05-12T14:52:31.756Z,26.10
2017-05-12T14:54:58.762Z,26.10
2017-05-12T14:57:25.941Z,25.70
2017-05-12T14:59:53.161Z,27.90
2017-05-12T15:02:20.645Z,29.40
2017-05-12T15:04:47.842Z,30.10
2017-05-12T15:07:15.053Z,27.10
2017-05-12T15:09:42.245Z,25.40
2017-05-12T15:12:10.202Z,23.20
2017-05-12T15:14:37.425Z,22.50
2017-05-12T15:17:04.597Z,22.90
2017-05-12T15:19:31.809Z,23.30
2017-05-12T15:21:59.068Z,23.20
2017-05-12T15:24:27.081Z,22.90
2017-05-12T15:26:55.331Z,22.00
2017-05-12T15:29:22.537Z,21.60
2017-05-12T15:31:49.698Z,21.40
2017-05-12T15:34:16.906Z,21.90
2017-05-12T15:36:44.158Z,21.20
2017-05-12T15:39:12.197Z,20.80
2017-05-12T15:41:39.378Z,21.00
2017-05-12T15:44:07.281Z,21.10
2017-05-12T15:46:35.590Z,20.80
2017-05-12T15:49:02.762Z,20.70
2017-05-12T15:51:30.733Z,20.60
2017-05-12T15:53:58.658Z,20.60
2017-05-12T15:56:25.825Z,20.80
2017-05-12T15:58:53.984Z,20.80
2017-05-12T16:01:21.158Z,21.20
2017-05-12T16:03:48.331Z,20.60
2017-05-12T16:06:15.838Z,20.70
2017-05-12T16:08:42.993Z,20.60
2017-05-12T16:11:10.182Z,20.50
2017-05-12T16:13:37.366Z,20.20
2017-05-12T16:16:04.991Z,20.00
2017-05-12T16:18:32.906Z,19.70
2017-05-12T16:21:00.098Z,19.60
2017-05-12T16:23:27.301Z,19.20
2017-05-12T16:25:54.498Z,19.10
2017-05-12T16:28:21.763Z,19.00
2017-05-12T16:30:48.946Z,19.00
2017-05-12T16:33:16.117Z,19.00
2017-05-12T16:35:43.288Z,18.70
2017-05-12T16:38:10.503Z,18.60
2017-05-12T16:40:37.686Z,18.60
2017-05-12T16:45:38.014Z,18.40
2017-05-12T16:48:05.181Z,18.40
2017-05-12T16:50:32.367Z,18.40
2017-05-12T16:52:59.546Z,18.40
2017-05-12T16:55:26.774Z,18.20
2017-05-12T16:57:53.985Z,18.20
2017-05-12T17:00:21.166Z,18.10
2017-05-12T17:02:48.665Z,18.20
2017-05-12T17:05:15.865Z,18.00
2017-05-12T17:07:43.818Z,17.90
2017-05-12T17:10:11.042Z,18.00
2017-05-12T17:12:38.257Z,18.00
2017-05-12T17:15:05.443Z,17.90
2017-05-12T17:17:33.617Z,17.80
2017-05-12T17:20:00.782Z,17.60
2017-05-12T17:22:27.950Z,17.40
2017-05-12T17:24:55.945Z,17.20
2017-05-12T17:27:23.139Z,17.30
2017-05-12T17:29:50.693Z,17.30
2017-05-12T17:32:17.847Z,17.20
2017-05-12T17:34:46.037Z,17.10
2017-05-12T17:37:13.209Z,17.00
2017-05-12T17:39:41.109Z,16.80
2017-05-12T17:42:08.278Z,16.70
2017-05-12T17:44:35.725Z,16.60
2017-05-12T17:47:05.517Z,16.50
2017-05-12T17:49:34.906Z,16.40
2017-05-12T17:52:02.069Z,16.30
2017-05-12T17:54:29.266Z,16.10
2017-05-12T17:56:56.913Z,16.10
2017-05-12T17:59:24.110Z,16.00
2017-05-12T18:01:51.297Z,15.60
2017-05-12T18:04:19.537Z,14.70
2017-05-12T18:06:46.681Z,14.60
2017-05-12T18:09:14.193Z,14.30
2017-05-12T18:11:41.326Z,13.60
2017-05-12T18:14:08.466Z,12.80
2017-05-12T18:16:36.973Z,12.30
2017-05-12T18:19:04.102Z,12.10
2017-05-12T18:21:31.242Z,12.00
2017-05-12T18:23:59.393Z,11.90
2017-05-12T18:26:26.520Z,12.00
2017-05-12T18:28:53.694Z,12.00
2017-05-12T18:31:22.134Z,12.00
2017-05-12T18:33:49.299Z,11.90
2017-05-12T18:36:17.233Z,11.80
2017-05-12T18:38:45.417Z,11.90
2017-05-12T18:41:12.538Z,12.00
2017-05-12T18:43:39.681Z,11.90
2017-05-12T18:46:07.162Z,11.90
2017-05-12T18:48:34.304Z,11.60
2017-05-12T18:51:01.998Z,11.30
2017-05-12T18:53:29.821Z,10.90
2017-05-12T18:55:57.023Z,10.90
2017-05-12T18:58:24.911Z,10.70
2017-05-12T19:00:52.414Z,10.70
2017-05-12T19:03:20.597Z,10.70
2017-05-12T19:05:48.093Z,10.70
2017-05-12T19:08:17.045Z,10.60
2017-05-12T19:10:44.258Z,10.60
2017-05-12T19:13:11.395Z,10.40
2017-05-12T19:15:38.809Z,10.40
2017-05-12T19:18:05.977Z,10.40
2017-05-12T19:20:33.953Z,10.30
2017-05-12T19:23:01.147Z,10.40
2017-05-12T19:25:28.315Z,10.30
2017-05-12T19:27:55.882Z,10.30
2017-05-12T19:30:23.474Z,10.30
2017-05-12T19:32:51.398Z,10.30
2017-05-12T19:35:18.849Z,10.40
2017-05-12T19:37:46.035Z,10.40
2017-05-12T19:40:14.765Z,10.40
2017-05-12T19:42:43.290Z,10.40
2017-05-12T19:45:10.461Z,10.40
2017-05-12T19:47:38.351Z,10.30
2017-05-12T19:50:06.888Z,10.40
2017-05-12T19:52:34.053Z,10.40
2017-05-12T19:55:01.942Z,10.30
2017-05-12T20:00:09.765Z,10.40
2017-05-12T20:02:36.935Z,10.30
2017-05-12T20:05:05.082Z,10.40
2017-05-12T20:07:32.257Z,10.40
2017-05-12T20:09:59.410Z,10.40
2017-05-12T20:12:27.742Z,10.40
2017-05-12T20:14:55.677Z,10.30
2017-05-12T20:17:22.813Z,10.30
2017-05-12T20:19:51.025Z,10.30
2017-05-12T20:22:18.929Z,10.30
2017-05-12T20:24:46.115Z,10.20
2017-05-12T20:27:13.265Z,10.20
2017-05-12T20:29:40.451Z,10.20
2017-05-12T20:32:08.331Z,10.10
2017-05-12T20:34:35.826Z,10.10
2017-05-12T20:37:02.985Z,10.10
2017-05-12T20:39:30.205Z,10.00
2017-05-12T20:41:57.409Z,10.10
2017-05-12T20:44:25.297Z,10.00
2017-05-12T20:46:52.475Z,10.10
2017-05-12T20:49:19.646Z,10.10
2017-05-12T20:51:46.809Z,10.20
2017-05-12T20:54:13.950Z,10.20
2017-05-12T20:56:41.102Z,10.20
2017-05-12T20:59:08.550Z,10.20
2017-05-12T21:01:35.693Z,10.30
2017-05-12T21:04:02.842Z,10.20
2017-05-12T21:06:30.302Z,10.20
2017-05-12T21:08:57.428Z,10.30
2017-05-12T21:11:25.588Z,10.30
2017-05-12T21:13:53.081Z,10.30
2017-05-12T21:16:20.221Z,10.30
2017-05-12T21:18:52.041Z,10.30
2017-05-12T21:21:21.289Z,10.30
2017-05-12T21:23:48.432Z,10.20
2017-05-12T21:26:15.585Z,10.20
2017-05-12T21:28:43.739Z,10.10
2017-05-12T21:31:10.910Z,10.10
2017-05-12T21:33:38.061Z,10.10
2017-05-12T21:36:05.525Z,10.10
2017-05-12T21:38:32.653Z,10.20
2017-05-12T21:41:00.167Z,10.20
2017-05-12T21:43:28.401Z,10.20
2017-05-12T21:45:55.549Z,10.20
2017-05-12T21:48:22.670Z,10.20
2017-05-12T21:50:50.145Z,10.20
2017-05-12T21:53:17.403Z,10.20
2017-05-12T21:55:44.560Z,10.20
2017-05-12T21:58:12.011Z,10.20
2017-05-12T22:00:39.238Z,10.10
2017-05-12T22:03:09.176Z,10.10
2017-05-12T22:05:38.214Z,10.00
2017-05-12T22:08:05.374Z,10.10
2017-05-12T22:10:32.509Z,10.10
2017-05-12T22:13:00.744Z,10.00
2017-05-12T22:15:27.910Z,10.00
2017-05-12T22:17:55.810Z,10.00
2017-05-12T22:20:23.318Z,10.10
2017-05-12T22:22:50.461Z,10.10
2017-05-12T22:25:17.594Z,10.10
2017-05-12T22:27:45.073Z,10.20
2017-05-12T22:30:12.226Z,10.20
2017-05-12T22:32:39.366Z,10.20
2017-05-12T22:35:06.832Z,10.20
2017-05-12T22:37:34.000Z,10.20
2017-05-12T22:40:01.890Z,10.20
2017-05-12T22:42:29.405Z,10.20
2017-05-12T22:44:56.550Z,10.20
2017-05-12T22:47:23.709Z,10.20
2017-05-12T22:49:52.288Z,10.20
2017-05-12T22:52:19.413Z,10.20
2017-05-12T22:54:46.549Z,10.20
2017-05-12T22:57:14.038Z,10.20
2017-05-12T22:59:41.170Z,10.20
2017-05-12T23:02:09.373Z,10.20
2017-05-12T23:04:36.821Z,10.20
2017-05-12T23:07:04.062Z,10.20
2017-05-12T23:09:31.241Z,10.20
2017-05-12T23:11:58.789Z,10.20
2017-05-12T23:14:26.924Z,10.20
2017-05-12T23:16:54.053Z,10.20
2017-05-12T23:19:21.565Z,10.20
2017-05-12T23:21:48.697Z,10.20
2017-05-12T23:24:15.867Z,10.20
2017-05-12T23:26:44.093Z,10.20
2017-05-12T23:29:11.253Z,10.20
2017-05-12T23:31:38.407Z,10.20
2017-05-12T23:34:05.902Z,10.20
2017-05-12T23:36:33.038Z,10.20
2017-05-12T23:39:00.210Z,10.20
2017-05-12T23:41:28.460Z,10.20
2017-05-12T23:43:55.590Z,10.30
2017-05-12T23:46:22.721Z,10.30
2017-05-12T23:48:50.962Z,10.30
2017-05-12T23:51:18.833Z,10.30
2017-05-12T23:53:46.704Z,10.30
2017-05-12T23:56:14.933Z,10.30
2017-05-12T23:58:42.109Z,10.30
